sensor_id;sensor_type;location;lat;lon;timestamp;pressure;altitude;pressure_sealevel;temperature;humidity
81511;BME280;70931;48.796;8.440;2024-02-14T00:00:15;97603.97;;;4.13;80.75
81511;BME280;70931;48.796;8.440;2024-02-14T00:02:41;97610.28;;;4.44;78.42
81511;BME280;70931;48.796;8.440;2024-02-14T00:05:08;97594.56;;;4.74;76.48
81511;BME280;70931;48.796;8.440;2024-02-14T00:07:33;97599.06;;;4.94;77.13
81511;BME280;70931;48.796;8.440;2024-02-14T00:09:58;97612.31;;;4.83;76.97
81511;BME280;70931;48.796;8.440;2024-02-14T00:12:24;97605.13;;;5.06;76.45
81511;BME280;70931;48.796;8.440;2024-02-14T00:14:49;97597.09;;;5.07;76.01
81511;BME280;70931;48.796;8.440;2024-02-14T00:17:14;97606.91;;;5.16;76.19
81511;BME280;70931;48.796;8.440;2024-02-14T00:19:39;97603.19;;;5.29;75.09
81511;BME280;70931;48.796;8.440;2024-02-14T00:22:05;97608.50;;;5.29;75.46
81511;BME280;70931;48.796;8.440;2024-02-14T00:24:30;97592.44;;;5.41;74.26
81511;BME280;70931;48.796;8.440;2024-02-14T00:26:55;97609.59;;;5.88;72.27
81511;BME280;70931;48.796;8.440;2024-02-14T00:29:20;97602.28;;;6.20;69.56
81511;BME280;70931;48.796;8.440;2024-02-14T00:31:45;97604.09;;;6.60;67.54
81511;BME280;70931;48.796;8.440;2024-02-14T00:34:11;97593.22;;;6.82;65.71
81511;BME280;70931;48.796;8.440;2024-02-14T00:36:36;97615.53;;;7.18;64.85
81511;BME280;70931;48.796;8.440;2024-02-14T00:39:01;97617.75;;;7.32;65.41
81511;BME280;70931;48.796;8.440;2024-02-14T00:41:27;97614.16;;;7.42;64.40
81511;BME280;70931;48.796;8.440;2024-02-14T00:43:52;97615.34;;;7.58;63.34
81511;BME280;70931;48.796;8.440;2024-02-14T00:46:17;97628.38;;;7.41;66.35
81511;BME280;70931;48.796;8.440;2024-02-14T00:48:43;97621.69;;;7.37;64.64
81511;BME280;70931;48.796;8.440;2024-02-14T00:51:08;97618.31;;;7.55;63.59
81511;BME280;70931;48.796;8.440;2024-02-14T00:53:33;97604.31;;;7.72;64.58
81511;BME280;70931;48.796;8.440;2024-02-14T00:55:58;97615.34;;;7.77;63.30
81511;BME280;70931;48.796;8.440;2024-02-14T00:58:23;97597.91;;;7.65;64.20
81511;BME280;70931;48.796;8.440;2024-02-14T01:00:49;97601.91;;;7.78;63.54
81511;BME280;70931;48.796;8.440;2024-02-14T01:03:14;97594.41;;;8.01;62.57
81511;BME280;70931;48.796;8.440;2024-02-14T01:05:39;97590.69;;;7.84;64.62
81511;BME280;70931;48.796;8.440;2024-02-14T01:08:05;97588.59;;;7.88;64.74
81511;BME280;70931;48.796;8.440;2024-02-14T01:10:30;97588.66;;;7.69;65.96
81511;BME280;70931;48.796;8.440;2024-02-14T01:12:55;97589.66;;;7.58;66.83
81511;BME280;70931;48.796;8.440;2024-02-14T01:15:20;97585.94;;;7.41;66.47
81511;BME280;70931;48.796;8.440;2024-02-14T01:17:46;97590.44;;;7.31;68.46
81511;BME280;70931;48.796;8.440;2024-02-14T01:20:11;97594.03;;;7.40;67.35
81511;BME280;70931;48.796;8.440;2024-02-14T01:22:36;97586.22;;;7.38;67.71
81511;BME280;70931;48.796;8.440;2024-02-14T01:25:01;97588.47;;;7.33;67.85
81511;BME280;70931;48.796;8.440;2024-02-14T01:27:26;97593.78;;;6.95;68.68
81511;BME280;70931;48.796;8.440;2024-02-14T01:29:52;97584.72;;;7.07;69.52
81511;BME280;70931;48.796;8.440;2024-02-14T01:32:17;97577.59;;;6.79;69.54
81511;BME280;70931;48.796;8.440;2024-02-14T01:34:43;97569.91;;;6.76;69.60
81511;BME280;70931;48.796;8.440;2024-02-14T01:37:08;97588.47;;;6.95;69.35
81511;BME280;70931;48.796;8.440;2024-02-14T01:39:33;97569.78;;;6.97;66.35
81511;BME280;70931;48.796;8.440;2024-02-14T01:41:58;97578.16;;;7.11;68.27
81511;BME280;70931;48.796;8.440;2024-02-14T01:44:24;97583.75;;;7.08;68.33
81511;BME280;70931;48.796;8.440;2024-02-14T01:46:49;97580.09;;;6.90;68.55
81511;BME280;70931;48.796;8.440;2024-02-14T01:49:15;97582.63;;;6.82;68.78
81511;BME280;70931;48.796;8.440;2024-02-14T01:51:43;97557.91;;;6.72;69.48
81511;BME280;70931;48.796;8.440;2024-02-14T01:54:11;97565.56;;;6.56;70.23
81511;BME280;70931;48.796;8.440;2024-02-14T01:56:37;97567.13;;;6.58;70.24
81511;BME280;70931;48.796;8.440;2024-02-14T01:59:02;97573.66;;;6.45;70.34
81511;BME280;70931;48.796;8.440;2024-02-14T02:01:28;97558.19;;;6.50;68.50
81511;BME280;70931;48.796;8.440;2024-02-14T02:03:53;97548.84;;;6.65;68.56
81511;BME280;70931;48.796;8.440;2024-02-14T02:06:19;97547.59;;;6.50;69.30
81511;BME280;70931;48.796;8.440;2024-02-14T02:08:44;97531.28;;;6.54;69.34
81511;BME280;70931;48.796;8.440;2024-02-14T02:11:10;97550.13;;;6.80;68.71
81511;BME280;70931;48.796;8.440;2024-02-14T02:13:35;97543.56;;;6.65;69.00
81511;BME280;70931;48.796;8.440;2024-02-14T02:16:01;97540.44;;;6.41;69.43
81511;BME280;70931;48.796;8.440;2024-02-14T02:18:26;97529.59;;;6.44;69.94
81511;BME280;70931;48.796;8.440;2024-02-14T02:20:51;97538.06;;;6.38;70.33
81511;BME280;70931;48.796;8.440;2024-02-14T02:23:16;97528.41;;;6.17;71.32
81511;BME280;70931;48.796;8.440;2024-02-14T02:25:42;97516.19;;;6.16;71.77
81511;BME280;70931;48.796;8.440;2024-02-14T02:28:08;97513.53;;;6.36;71.15
81511;BME280;70931;48.796;8.440;2024-02-14T02:30:33;97521.72;;;6.04;71.63
81511;BME280;70931;48.796;8.440;2024-02-14T02:32:58;97528.41;;;6.17;71.57
81511;BME280;70931;48.796;8.440;2024-02-14T02:35:23;97534.44;;;6.19;70.33
81511;BME280;70931;48.796;8.440;2024-02-14T02:37:48;97528.28;;;6.28;70.66
81511;BME280;70931;48.796;8.440;2024-02-14T02:40:14;97539.91;;;5.88;71.56
81511;BME280;70931;48.796;8.440;2024-02-14T02:42:39;97535.63;;;5.96;71.88
81511;BME280;70931;48.796;8.440;2024-02-14T02:45:04;97555.44;;;6.11;70.91
81511;BME280;70931;48.796;8.440;2024-02-14T02:47:30;97543.16;;;6.01;70.83
81511;BME280;70931;48.796;8.440;2024-02-14T02:49:55;97555.44;;;6.02;70.85
81511;BME280;70931;48.796;8.440;2024-02-14T02:52:20;97552.72;;;6.22;70.17
81511;BME280;70931;48.796;8.440;2024-02-14T02:54:45;97553.66;;;6.21;70.69
81511;BME280;70931;48.796;8.440;2024-02-14T02:57:11;97556.88;;;6.35;69.48
81511;BME280;70931;48.796;8.440;2024-02-14T02:59:36;97553.81;;;6.29;68.94
81511;BME280;70931;48.796;8.440;2024-02-14T03:02:02;97557.16;;;6.31;68.69
81511;BME280;70931;48.796;8.440;2024-02-14T03:04:27;97552.13;;;6.28;69.91
81511;BME280;70931;48.796;8.440;2024-02-14T03:06:53;97551.06;;;6.41;68.79
81511;BME280;70931;48.796;8.440;2024-02-14T03:09:18;97556.78;;;6.46;68.46
81511;BME280;70931;48.796;8.440;2024-02-14T03:11:46;97563.16;;;6.24;68.91
81511;BME280;70931;48.796;8.440;2024-02-14T03:14:12;97510.81;;;5.88;68.30
81511;BME280;70931;48.796;8.440;2024-02-14T03:16:37;97550.78;;;6.44;67.59
81511;BME280;70931;48.796;8.440;2024-02-14T03:19:02;97563.06;;;6.45;68.09
81511;BME280;70931;48.796;8.440;2024-02-14T03:21:27;97562.25;;;6.54;68.35
81511;BME280;70931;48.796;8.440;2024-02-14T03:23:53;97553.13;;;6.27;68.37
81511;BME280;70931;48.796;8.440;2024-02-14T03:26:18;97571.28;;;6.61;67.55
81511;BME280;70931;48.796;8.440;2024-02-14T03:28:43;97570.59;;;6.59;67.83
81511;BME280;70931;48.796;8.440;2024-02-14T03:31:08;97559.03;;;6.60;67.75
81511;BME280;70931;48.796;8.440;2024-02-14T03:33:33;97558.19;;;6.69;66.99
81511;BME280;70931;48.796;8.440;2024-02-14T03:35:59;97563.38;;;6.80;67.47
81511;BME280;70931;48.796;8.440;2024-02-14T03:38:25;97555.28;;;6.81;66.83
81511;BME280;70931;48.796;8.440;2024-02-14T03:40:50;97567.00;;;6.79;66.96
81511;BME280;70931;48.796;8.440;2024-02-14T03:43:16;97561.84;;;6.68;67.59
81511;BME280;70931;48.796;8.440;2024-02-14T03:45:41;97563.22;;;6.81;67.10
81511;BME280;70931;48.796;8.440;2024-02-14T03:48:06;97563.09;;;6.73;68.25
81511;BME280;70931;48.796;8.440;2024-02-14T03:50:31;97568.25;;;6.94;64.17
81511;BME280;70931;48.796;8.440;2024-02-14T03:52:57;97572.44;;;6.97;66.85
81511;BME280;70931;48.796;8.440;2024-02-14T03:55:22;97524.31;;;6.72;66.78
81511;BME280;70931;48.796;8.440;2024-02-14T03:57:47;97567.00;;;7.17;66.91
81511;BME280;70931;48.796;8.440;2024-02-14T04:00:13;97567.41;;;7.03;67.35
81511;BME280;70931;48.796;8.440;2024-02-14T04:02:38;97570.22;;;7.11;66.88
81511;BME280;70931;48.796;8.440;2024-02-14T04:05:03;97566.13;;;7.26;67.63
81511;BME280;70931;48.796;8.440;2024-02-14T04:07:29;97560.16;;;7.05;66.85
81511;BME280;70931;48.796;8.440;2024-02-14T04:09:54;97562.38;;;7.19;67.15
81511;BME280;70931;48.796;8.440;2024-02-14T04:12:20;97568.13;;;7.05;67.69
81511;BME280;70931;48.796;8.440;2024-02-14T04:14:45;97563.38;;;6.99;67.63
81511;BME280;70931;48.796;8.440;2024-02-14T04:17:10;97560.31;;;6.94;67.64
81511;BME280;70931;48.796;8.440;2024-02-14T04:19:35;97564.75;;;7.13;66.63
81511;BME280;70931;48.796;8.440;2024-02-14T04:22:00;97570.34;;;7.19;66.21
81511;BME280;70931;48.796;8.440;2024-02-14T04:24:26;97562.50;;;7.27;67.02
81511;BME280;70931;48.796;8.440;2024-02-14T04:26:55;97568.53;;;7.20;67.35
81511;BME280;70931;48.796;8.440;2024-02-14T04:29:21;97570.72;;;7.24;67.68
81511;BME280;70931;48.796;8.440;2024-02-14T04:31:47;97574.50;;;7.31;65.46
81511;BME280;70931;48.796;8.440;2024-02-14T04:34:12;97574.97;;;7.64;65.01
81511;BME280;70931;48.796;8.440;2024-02-14T04:36:38;97582.53;;;7.49;65.71
81511;BME280;70931;48.796;8.440;2024-02-14T04:39:03;97587.28;;;7.65;65.04
81511;BME280;70931;48.796;8.440;2024-02-14T04:41:28;97587.84;;;7.59;64.24
81511;BME280;70931;48.796;8.440;2024-02-14T04:43:53;97587.06;;;7.85;64.86
81511;BME280;70931;48.796;8.440;2024-02-14T04:46:19;97573.16;;;8.01;64.39
81511;BME280;70931;48.796;8.440;2024-02-14T04:48:44;97576.84;;;7.90;64.46
81511;BME280;70931;48.796;8.440;2024-02-14T04:51:09;97584.91;;;7.98;63.86
81511;BME280;70931;48.796;8.440;2024-02-14T04:53:34;97586.16;;;8.04;65.06
81511;BME280;70931;48.796;8.440;2024-02-14T04:55:59;97583.22;;;8.07;65.15
81511;BME280;70931;48.796;8.440;2024-02-14T04:58:25;97590.09;;;8.00;65.61
81511;BME280;70931;48.796;8.440;2024-02-14T05:00:50;97582.34;;;8.16;65.66
81511;BME280;70931;48.796;8.440;2024-02-14T05:03:15;97581.91;;;8.21;65.23
81511;BME280;70931;48.796;8.440;2024-02-14T05:05:41;97576.72;;;8.19;65.76
81511;BME280;70931;48.796;8.440;2024-02-14T05:08:07;97570.31;;;8.12;65.59
81511;BME280;70931;48.796;8.440;2024-02-14T05:10:32;97574.75;;;8.31;66.40
81511;BME280;70931;48.796;8.440;2024-02-14T05:12:57;97565.94;;;8.30;66.27
81511;BME280;70931;48.796;8.440;2024-02-14T05:15:23;97568.47;;;8.22;67.08
81511;BME280;70931;48.796;8.440;2024-02-14T05:17:48;97558.00;;;8.21;65.98
81511;BME280;70931;48.796;8.440;2024-02-14T05:20:13;97575.03;;;8.28;66.22
81511;BME280;70931;48.796;8.440;2024-02-14T05:22:38;97573.31;;;8.36;66.50
81511;BME280;70931;48.796;8.440;2024-02-14T05:25:04;97567.44;;;8.33;66.97
81511;BME280;70931;48.796;8.440;2024-02-14T05:27:30;97575.00;;;8.37;67.29
81511;BME280;70931;48.796;8.440;2024-02-14T05:29:56;97568.25;;;8.43;66.77
81511;BME280;70931;48.796;8.440;2024-02-14T05:32:21;97563.09;;;8.04;67.55
81511;BME280;70931;48.796;8.440;2024-02-14T05:34:46;97572.38;;;8.28;67.52
81511;BME280;70931;48.796;8.440;2024-02-14T05:37:12;97571.31;;;8.38;67.98
81511;BME280;70931;48.796;8.440;2024-02-14T05:39:37;97568.78;;;8.46;67.60
81511;BME280;70931;48.796;8.440;2024-02-14T05:42:02;97561.41;;;8.40;68.36
81511;BME280;70931;48.796;8.440;2024-02-14T05:44:28;97567.16;;;8.36;67.77
81511;BME280;70931;48.796;8.440;2024-02-14T05:46:53;97565.03;;;8.39;67.96
81511;BME280;70931;48.796;8.440;2024-02-14T05:49:18;97551.16;;;8.45;68.37
81511;BME280;70931;48.796;8.440;2024-02-14T05:51:43;97560.88;;;8.37;68.38
81511;BME280;70931;48.796;8.440;2024-02-14T05:54:09;97562.53;;;8.55;69.00
81511;BME280;70931;48.796;8.440;2024-02-14T05:56:34;97563.09;;;8.59;68.80
81511;BME280;70931;48.796;8.440;2024-02-14T05:58:59;97560.28;;;8.61;68.96
81511;BME280;70931;48.796;8.440;2024-02-14T06:01:24;97554.06;;;8.70;68.92
81511;BME280;70931;48.796;8.440;2024-02-14T06:03:49;97553.44;;;8.76;67.47
81511;BME280;70931;48.796;8.440;2024-02-14T06:06:15;97554.84;;;8.80;67.60
81511;BME280;70931;48.796;8.440;2024-02-14T06:08:40;97544.50;;;8.77;68.18
81511;BME280;70931;48.796;8.440;2024-02-14T06:11:05;97563.19;;;8.85;68.57
81511;BME280;70931;48.796;8.440;2024-02-14T06:13:30;97562.75;;;8.89;67.67
81511;BME280;70931;48.796;8.440;2024-02-14T06:15:56;97561.06;;;8.88;67.28
81511;BME280;70931;48.796;8.440;2024-02-14T06:18:21;97564.63;;;8.97;67.56
81511;BME280;70931;48.796;8.440;2024-02-14T06:20:46;97560.53;;;9.02;67.59
81511;BME280;70931;48.796;8.440;2024-02-14T06:23:11;97562.41;;;9.10;67.15
81511;BME280;70931;48.796;8.440;2024-02-14T06:25:36;97565.84;;;9.20;68.24
81511;BME280;70931;48.796;8.440;2024-02-14T06:28:02;97568.56;;;9.10;68.82
81511;BME280;70931;48.796;8.440;2024-02-14T06:30:27;97578.91;;;9.13;67.57
81511;BME280;70931;48.796;8.440;2024-02-14T06:32:52;97574.44;;;9.14;69.11
81511;BME280;70931;48.796;8.440;2024-02-14T06:35:17;97560.44;;;9.12;66.06
81511;BME280;70931;48.796;8.440;2024-02-14T06:37:42;97571.97;;;9.38;66.48
81511;BME280;70931;48.796;8.440;2024-02-14T06:40:08;97579.97;;;9.38;64.92
81511;BME280;70931;48.796;8.440;2024-02-14T06:42:34;97579.91;;;9.56;63.73
81511;BME280;70931;48.796;8.440;2024-02-14T06:44:59;97574.47;;;9.65;64.17
81511;BME280;70931;48.796;8.440;2024-02-14T06:47:24;97587.56;;;9.85;63.21
81511;BME280;70931;48.796;8.440;2024-02-14T06:49:49;97585.53;;;9.79;63.56
81511;BME280;70931;48.796;8.440;2024-02-14T06:52:14;97595.75;;;9.83;62.40
81511;BME280;70931;48.796;8.440;2024-02-14T06:54:40;97600.72;;;9.78;62.17
81511;BME280;70931;48.796;8.440;2024-02-14T06:57:05;97600.22;;;9.83;62.49
81511;BME280;70931;48.796;8.440;2024-02-14T06:59:30;97605.63;;;9.99;62.82
81511;BME280;70931;48.796;8.440;2024-02-14T07:01:55;97610.66;;;10.02;61.53
81511;BME280;70931;48.796;8.440;2024-02-14T07:04:22;97603.72;;;10.09;61.70
81511;BME280;70931;48.796;8.440;2024-02-14T07:06:47;97611.03;;;10.07;61.79
81511;BME280;70931;48.796;8.440;2024-02-14T07:09:12;97612.44;;;10.19;61.06
81511;BME280;70931;48.796;8.440;2024-02-14T07:11:37;97620.13;;;10.22;61.84
81511;BME280;70931;48.796;8.440;2024-02-14T07:14:04;97611.66;;;10.01;62.24
81511;BME280;70931;48.796;8.440;2024-02-14T07:16:29;97616.88;;;10.10;61.67
81511;BME280;70931;48.796;8.440;2024-02-14T07:18:54;97613.78;;;10.15;61.91
81511;BME280;70931;48.796;8.440;2024-02-14T07:21:19;97624.78;;;10.20;62.32
81511;BME280;70931;48.796;8.440;2024-02-14T07:23:44;97617.84;;;10.01;61.87
81511;BME280;70931;48.796;8.440;2024-02-14T07:26:10;97623.59;;;10.14;61.82
81511;BME280;70931;48.796;8.440;2024-02-14T07:28:35;97622.78;;;10.22;62.62
81511;BME280;70931;48.796;8.440;2024-02-14T07:31:00;97624.72;;;10.12;61.72
81511;BME280;70931;48.796;8.440;2024-02-14T07:33:25;97615.66;;;10.05;62.40
81511;BME280;70931;48.796;8.440;2024-02-14T07:35:50;97631.63;;;9.97;62.55
81511;BME280;70931;48.796;8.440;2024-02-14T07:38:16;97640.97;;;10.01;62.94
81511;BME280;70931;48.796;8.440;2024-02-14T07:40:41;97644.66;;;10.08;64.34
81511;BME280;70931;48.796;8.440;2024-02-14T07:43:06;97639.59;;;9.97;64.62
81511;BME280;70931;48.796;8.440;2024-02-14T07:45:31;97641.34;;;9.80;65.06
81511;BME280;70931;48.796;8.440;2024-02-14T07:47:57;97632.66;;;10.04;63.83
81511;BME280;70931;48.796;8.440;2024-02-14T07:50:22;97632.25;;;10.16;64.37
81511;BME280;70931;48.796;8.440;2024-02-14T07:52:47;97643.16;;;10.31;64.13
81511;BME280;70931;48.796;8.440;2024-02-14T07:55:13;97641.66;;;10.03;64.06
81511;BME280;70931;48.796;8.440;2024-02-14T07:57:39;97636.13;;;10.22;63.51
81511;BME280;70931;48.796;8.440;2024-02-14T08:00:05;97655.88;;;10.37;63.49
81511;BME280;70931;48.796;8.440;2024-02-14T08:02:31;97661.13;;;10.21;63.34
81511;BME280;70931;48.796;8.440;2024-02-14T08:04:56;97662.34;;;10.09;64.21
81511;BME280;70931;48.796;8.440;2024-02-14T08:07:21;97658.81;;;10.26;63.40
81511;BME280;70931;48.796;8.440;2024-02-14T08:09:46;97655.75;;;10.13;63.34
81511;BME280;70931;48.796;8.440;2024-02-14T08:12:12;97647.50;;;10.32;62.88
81511;BME280;70931;48.796;8.440;2024-02-14T08:14:37;97641.94;;;10.17;62.62
81511;BME280;70931;48.796;8.440;2024-02-14T08:17:02;97658.59;;;10.53;62.48
81511;BME280;70931;48.796;8.440;2024-02-14T08:19:28;97655.03;;;10.37;62.42
81511;BME280;70931;48.796;8.440;2024-02-14T08:21:53;97660.50;;;10.27;63.36
81511;BME280;70931;48.796;8.440;2024-02-14T08:24:18;97656.53;;;10.39;62.95
81511;BME280;70931;48.796;8.440;2024-02-14T08:26:43;97663.41;;;10.42;62.64
81511;BME280;70931;48.796;8.440;2024-02-14T08:29:09;97667.06;;;10.41;62.93
81511;BME280;70931;48.796;8.440;2024-02-14T08:31:34;97672.94;;;10.52;63.41
81511;BME280;70931;48.796;8.440;2024-02-14T08:33:59;97671.41;;;10.42;63.51
81511;BME280;70931;48.796;8.440;2024-02-14T08:36:24;97685.16;;;10.29;63.67
81511;BME280;70931;48.796;8.440;2024-02-14T08:38:49;97690.53;;;10.37;64.53
81511;BME280;70931;48.796;8.440;2024-02-14T08:41:15;97693.06;;;10.13;66.11
81511;BME280;70931;48.796;8.440;2024-02-14T08:43:40;97689.13;;;10.07;66.38
81511;BME280;70931;48.796;8.440;2024-02-14T08:46:11;97677.06;;;10.13;66.58
81511;BME280;70931;48.796;8.440;2024-02-14T08:48:37;97690.75;;;10.18;67.03
81511;BME280;70931;48.796;8.440;2024-02-14T08:51:02;97682.16;;;10.32;66.73
81511;BME280;70931;48.796;8.440;2024-02-14T08:53:27;97680.72;;;10.46;67.00
81511;BME280;70931;48.796;8.440;2024-02-14T08:55:52;97685.84;;;10.39;67.42
81511;BME280;70931;48.796;8.440;2024-02-14T08:58:18;97669.94;;;10.47;67.15
81511;BME280;70931;48.796;8.440;2024-02-14T09:00:43;97678.25;;;10.44;67.29
81511;BME280;70931;48.796;8.440;2024-02-14T09:03:08;97675.28;;;10.55;66.87
81511;BME280;70931;48.796;8.440;2024-02-14T09:05:33;97677.09;;;10.47;67.09
81511;BME280;70931;48.796;8.440;2024-02-14T09:07:59;97676.41;;;10.78;66.23
81511;BME280;70931;48.796;8.440;2024-02-14T09:10:24;97676.28;;;10.54;66.42
81511;BME280;70931;48.796;8.440;2024-02-14T09:12:49;97689.97;;;10.59;65.87
81511;BME280;70931;48.796;8.440;2024-02-14T09:15:14;97667.91;;;10.41;66.70
81511;BME280;70931;48.796;8.440;2024-02-14T09:17:40;97661.03;;;10.72;66.23
81511;BME280;70931;48.796;8.440;2024-02-14T09:20:08;97685.25;;;10.79;65.56
81511;BME280;70931;48.796;8.440;2024-02-14T09:22:35;97664.38;;;10.82;66.27
81511;BME280;70931;48.796;8.440;2024-02-14T09:25:00;97679.78;;;10.97;66.76
81511;BME280;70931;48.796;8.440;2024-02-14T09:27:25;97691.47;;;10.96;66.49
81511;BME280;70931;48.796;8.440;2024-02-14T09:29:51;97681.53;;;10.72;66.92
81511;BME280;70931;48.796;8.440;2024-02-14T09:32:16;97684.09;;;10.90;66.91
81511;BME280;70931;48.796;8.440;2024-02-14T09:34:41;97687.66;;;11.14;66.18
81511;BME280;70931;48.796;8.440;2024-02-14T09:37:06;97678.78;;;10.98;67.00
81511;BME280;70931;48.796;8.440;2024-02-14T09:39:32;97670.53;;;11.25;67.43
81511;BME280;70931;48.796;8.440;2024-02-14T09:41:59;97672.22;;;11.50;67.10
81511;BME280;70931;48.796;8.440;2024-02-14T09:44:24;97678.22;;;11.36;66.33
81511;BME280;70931;48.796;8.440;2024-02-14T09:46:51;97664.88;;;11.36;65.94
81511;BME280;70931;48.796;8.440;2024-02-14T09:49:17;97672.03;;;11.60;65.81
81511;BME280;70931;48.796;8.440;2024-02-14T09:51:45;97670.88;;;11.46;65.89
81511;BME280;70931;48.796;8.440;2024-02-14T09:54:11;97663.25;;;11.75;65.09
81511;BME280;70931;48.796;8.440;2024-02-14T09:56:37;97666.22;;;12.05;63.90
81511;BME280;70931;48.796;8.440;2024-02-14T09:59:02;97665.56;;;11.86;64.29
81511;BME280;70931;48.796;8.440;2024-02-14T10:01:28;97666.38;;;12.11;63.36
81511;BME280;70931;48.796;8.440;2024-02-14T10:03:54;97672.59;;;11.79;64.56
81511;BME280;70931;48.796;8.440;2024-02-14T10:06:20;97675.25;;;11.71;64.97
81511;BME280;70931;48.796;8.440;2024-02-14T10:08:46;97677.94;;;11.95;64.52
81511;BME280;70931;48.796;8.440;2024-02-14T10:11:12;97683.59;;;12.09;64.16
81511;BME280;70931;48.796;8.440;2024-02-14T10:13:37;97666.88;;;12.15;64.21
81511;BME280;70931;48.796;8.440;2024-02-14T10:16:03;97670.91;;;12.11;64.22
81511;BME280;70931;48.796;8.440;2024-02-14T10:18:31;97658.03;;;12.22;63.71
81511;BME280;70931;48.796;8.440;2024-02-14T10:20:56;97681.59;;;11.94;64.34
81511;BME280;70931;48.796;8.440;2024-02-14T10:23:22;97679.94;;;12.02;64.71
81511;BME280;70931;48.796;8.440;2024-02-14T10:25:50;97683.88;;;12.38;63.82
81511;BME280;70931;48.796;8.440;2024-02-14T10:28:15;97686.91;;;12.27;64.03
81511;BME280;70931;48.796;8.440;2024-02-14T10:30:40;97686.59;;;12.14;64.74
81511;BME280;70931;48.796;8.440;2024-02-14T10:33:05;97668.91;;;11.96;64.32
81511;BME280;70931;48.796;8.440;2024-02-14T10:35:31;97698.97;;;11.98;64.52
81511;BME280;70931;48.796;8.440;2024-02-14T10:38:00;97702.25;;;11.52;65.92
81511;BME280;70931;48.796;8.440;2024-02-14T10:40:26;97705.34;;;11.73;65.70
81511;BME280;70931;48.796;8.440;2024-02-14T10:42:52;97702.59;;;11.65;65.88
81511;BME280;70931;48.796;8.440;2024-02-14T10:45:17;97709.09;;;11.55;66.08
81511;BME280;70931;48.796;8.440;2024-02-14T10:47:42;97716.03;;;11.73;65.76
81511;BME280;70931;48.796;8.440;2024-02-14T10:50:12;97730.19;;;11.74;65.66
81511;BME280;70931;48.796;8.440;2024-02-14T10:52:40;97727.03;;;11.86;65.30
81511;BME280;70931;48.796;8.440;2024-02-14T10:55:06;97713.16;;;11.83;65.99
81511;BME280;70931;48.796;8.440;2024-02-14T10:57:36;97693.44;;;11.68;65.97
81511;BME280;70931;48.796;8.440;2024-02-14T11:00:09;97716.03;;;11.73;65.60
81511;BME280;70931;48.796;8.440;2024-02-14T11:02:39;97725.88;;;11.73;66.45
81511;BME280;70931;48.796;8.440;2024-02-14T11:05:11;97718.34;;;11.92;65.11
81511;BME280;70931;48.796;8.440;2024-02-14T11:07:46;97722.38;;;11.96;65.42
81511;BME280;70931;48.796;8.440;2024-02-14T11:10:37;97710.00;;;11.95;65.23
81511;BME280;70931;48.796;8.440;2024-02-14T11:13:14;97715.16;;;12.29;64.51
81511;BME280;70931;48.796;8.440;2024-02-14T11:15:54;97721.41;;;12.77;63.57
81511;BME280;70931;48.796;8.440;2024-02-14T11:18:28;97715.44;;;12.97;61.77
81511;BME280;70931;48.796;8.440;2024-02-14T11:21:15;97707.56;;;13.43;60.89
81511;BME280;70931;48.796;8.440;2024-02-14T11:24:04;97702.81;;;13.53;60.23
81511;BME280;70931;48.796;8.440;2024-02-14T11:26:55;97707.03;;;13.47;59.74
81511;BME280;70931;48.796;8.440;2024-02-14T11:29:28;97711.34;;;13.26;61.40
81511;BME280;70931;48.796;8.440;2024-02-14T11:32:04;97700.19;;;13.45;60.99
81511;BME280;70931;48.796;8.440;2024-02-14T11:34:56;97699.34;;;13.44;60.65
81511;BME280;70931;48.796;8.440;2024-02-14T11:40:28;97696.06;;;12.95;61.83
81511;BME280;70931;48.796;8.440;2024-02-14T11:42:54;97706.56;;;13.13;61.23
81511;BME280;70931;48.796;8.440;2024-02-14T11:45:37;97706.56;;;13.13;61.63
81511;BME280;70931;48.796;8.440;2024-02-14T11:48:06;97701.72;;;13.00;61.99
81511;BME280;70931;48.796;8.440;2024-02-14T11:51:03;97705.72;;;13.04;62.61
81511;BME280;70931;48.796;8.440;2024-02-14T11:53:41;97713.72;;;12.74;63.24
81511;BME280;70931;48.796;8.440;2024-02-14T11:56:14;97715.97;;;12.93;62.96
81511;BME280;70931;48.796;8.440;2024-02-14T11:58:39;97718.47;;;12.94;62.52
81511;BME280;70931;48.796;8.440;2024-02-14T12:04:10;97696.97;;;12.72;63.45
81511;BME280;70931;48.796;8.440;2024-02-14T12:06:42;97708.59;;;12.48;64.69
81511;BME280;70931;48.796;8.440;2024-02-14T12:09:28;97709.69;;;12.70;64.49
81511;BME280;70931;48.796;8.440;2024-02-14T12:11:53;97714.78;;;12.56;64.20
81511;BME280;70931;48.796;8.440;2024-02-14T12:14:21;97717.47;;;12.95;63.26
81511;BME280;70931;48.796;8.440;2024-02-14T12:16:46;97712.56;;;13.15;63.09
81511;BME280;70931;48.796;8.440;2024-02-14T12:19:15;97701.72;;;13.00;63.10
81511;BME280;70931;48.796;8.440;2024-02-14T12:21:41;97689.84;;;12.95;62.77
81511;BME280;70931;48.796;8.440;2024-02-14T12:24:11;97702.22;;;13.04;63.17
81511;BME280;70931;48.796;8.440;2024-02-14T12:26:38;97696.97;;;13.19;62.60
81511;BME280;70931;48.796;8.440;2024-02-14T12:29:04;97690.97;;;13.17;62.50
81511;BME280;70931;48.796;8.440;2024-02-14T12:31:29;97703.63;;;13.31;62.66
81511;BME280;70931;48.796;8.440;2024-02-14T12:33:55;97685.16;;;13.36;62.52
81511;BME280;70931;48.796;8.440;2024-02-14T12:36:20;97680.44;;;13.38;62.61
81511;BME280;70931;48.796;8.440;2024-02-14T12:38:45;97694.25;;;13.27;63.40
81511;BME280;70931;48.796;8.440;2024-02-14T12:41:11;97683.84;;;13.32;62.76
81511;BME280;70931;48.796;8.440;2024-02-14T12:43:36;97686.13;;;13.65;62.10
81511;BME280;70931;48.796;8.440;2024-02-14T12:46:01;97686.06;;;13.51;62.72
81511;BME280;70931;48.796;8.440;2024-02-14T12:48:26;97686.22;;;13.27;63.81
81511;BME280;70931;48.796;8.440;2024-02-14T12:50:52;97682.69;;;13.57;62.59
81511;BME280;70931;48.796;8.440;2024-02-14T12:53:17;97678.75;;;13.45;62.58
81511;BME280;70931;48.796;8.440;2024-02-14T12:55:42;97666.06;;;13.61;63.19
81511;BME280;70931;48.796;8.440;2024-02-14T12:58:08;97674.63;;;13.34;63.92
81511;BME280;70931;48.796;8.440;2024-02-14T13:00:33;97677.00;;;13.75;63.35
81511;BME280;70931;48.796;8.440;2024-02-14T13:02:58;97674.94;;;13.62;63.06
81511;BME280;70931;48.796;8.440;2024-02-14T13:05:23;97674.38;;;13.44;63.17